Time;durP1;ratioP1;P1;durP2;ratioP2;P2;SDS_P1;SDS_P2;PMS_P1;PMS_P2;Temp;Humidity;BMP_temperature;BMP_pressure;BME280_temperature;BME280_humidity;BME280_pressure;Samples;Min_cycle;Max_cycle;Signal;HPM_P1;HPM_P2
2022/07/07 00:01:53;;;;;;;2.87;1.60;;;15.90;99.90;;;;;;5076161;28;20219;-65
2022/07/07 00:04:20;;;;;;;5.73;2.00;;;15.90;99.90;;;;;;5076891;28;20282;-63
2022/07/07 00:06:47;;;;;;;5.90;1.90;;;15.90;99.90;;;;;;5077342;28;20201;-64
2022/07/07 00:09:14;;;;;;;2.83;1.70;;;15.90;99.90;;;;;;5077347;28;20286;-64
2022/07/07 00:11:40;;;;;;;3.47;1.90;;;15.90;99.90;;;;;;5076809;28;20270;-64
2022/07/07 00:14:08;;;;;;;5.13;1.73;;;15.90;99.90;;;;;;5077038;28;20200;-64
2022/07/07 00:16:37;;;;;;;3.33;1.87;;;15.90;99.90;;;;;;5076400;28;20665;-63
2022/07/07 00:19:04;;;;;;;2.43;1.80;;;15.90;99.90;;;;;;5077441;28;20254;-64
2022/07/07 00:21:32;;;;;;;2.40;1.80;;;15.90;99.90;;;;;;5076918;28;20209;-63
2022/07/07 00:23:58;;;;;;;3.03;1.70;;;15.90;99.90;;;;;;5075843;28;20639;-63
2022/07/07 00:26:25;;;;;;;3.77;1.80;;;15.90;99.90;;;;;;5076144;28;20201;-63
2022/07/07 00:28:52;;;;;;;3.53;1.60;;;16.00;99.90;;;;;;5075516;28;20739;-63
2022/07/07 00:31:19;;;;;;;2.60;1.60;;;15.90;99.90;;;;;;5075671;28;20205;-63
2022/07/07 00:33:47;;;;;;;3.40;1.75;;;15.90;99.90;;;;;;5075303;28;20255;-63
2022/07/07 00:36:14;;;;;;;2.50;1.77;;;15.80;99.90;;;;;;5075073;28;20424;-63
2022/07/07 00:38:41;;;;;;;5.47;2.83;;;15.80;99.90;;;;;;5074862;28;20237;-63
2022/07/07 00:41:08;;;;;;;3.80;2.10;;;15.90;99.90;;;;;;5075065;28;20624;-63
2022/07/07 00:43:38;;;;;;;5.37;1.93;;;15.90;99.90;;;;;;5074642;28;20220;-63
2022/07/07 00:46:06;;;;;;;3.77;1.63;;;16.00;99.90;;;;;;5075094;28;20623;-63
2022/07/07 00:48:34;;;;;;;1.97;1.60;;;16.00;99.90;;;;;;5075728;28;20292;-63
2022/07/07 00:51:04;;;;;;;3.63;2.00;;;16.10;99.90;;;;;;5076057;28;20251;-63
2022/07/07 00:53:31;;;;;;;3.40;1.80;;;16.00;99.90;;;;;;5074576;28;20258;-63
2022/07/07 00:55:59;;;;;;;3.20;1.90;;;16.00;99.90;;;;;;5075330;28;20626;-63
2022/07/07 00:58:26;;;;;;;4.03;2.10;;;16.00;99.90;;;;;;5075704;28;20262;-63
2022/07/07 01:00:52;;;;;;;3.13;1.63;;;15.90;99.90;;;;;;5075435;28;20209;-63
2022/07/07 01:03:19;;;;;;;2.07;1.80;;;15.90;99.90;;;;;;5074887;28;20220;-63
2022/07/07 01:05:47;;;;;;;2.43;1.90;;;15.90;99.90;;;;;;5075001;28;20273;-63
2022/07/07 01:08:16;;;;;;;3.03;1.80;;;15.90;99.90;;;;;;5075088;28;20287;-64
2022/07/07 01:10:43;;;;;;;2.53;1.97;;;16.00;99.90;;;;;;5074889;28;20668;-63
2022/07/07 01:13:10;;;;;;;2.60;1.87;;;16.00;99.90;;;;;;5074692;28;20205;-63
2022/07/07 01:15:37;;;;;;;2.33;1.87;;;15.90;99.90;;;;;;5074412;28;20212;-63
2022/07/07 01:18:04;;;;;;;5.27;2.20;;;15.90;99.90;;;;;;5074648;28;20201;-64
2022/07/07 01:20:31;;;;;;;3.30;1.73;;;15.90;99.90;;;;;;5075349;28;20225;-64
2022/07/07 01:22:59;;;;;;;4.80;2.07;;;15.90;99.90;;;;;;5075192;28;20730;-64
2022/07/07 01:25:26;;;;;;;5.37;2.10;;;15.90;99.90;;;;;;5077029;28;20209;-64
2022/07/07 01:27:53;;;;;;;2.90;2.13;;;16.00;99.90;;;;;;5076241;28;20205;-63
2022/07/07 01:30:20;;;;;;;3.57;2.20;;;16.00;99.90;;;;;;5075932;28;20231;-63
2022/07/07 01:32:47;;;;;;;2.58;1.80;;;16.00;99.90;;;;;;5075495;28;20579;-63
2022/07/07 01:35:14;;;;;;;2.53;1.77;;;16.00;99.90;;;;;;5074172;28;20295;-64
2022/07/07 01:37:40;;;;;;;5.50;2.33;;;16.00;99.90;;;;;;5073314;28;20213;-63
2022/07/07 01:40:09;;;;;;;4.67;2.20;;;16.00;99.90;;;;;;5072879;28;20804;-63
2022/07/07 01:42:36;;;;;;;4.80;1.80;;;16.00;99.90;;;;;;5073608;28;20580;-63
2022/07/07 01:45:03;;;;;;;4.97;2.30;;;16.10;99.90;;;;;;5072658;28;20240;-63
2022/07/07 01:47:30;;;;;;;2.23;1.87;;;16.00;99.90;;;;;;5073236;28;20209;-63
2022/07/07 01:49:56;;;;;;;4.43;2.20;;;16.00;99.90;;;;;;5074218;28;20221;-64
2022/07/07 01:52:23;;;;;;;3.80;2.03;;;16.10;99.90;;;;;;5073587;28;20687;-63
2022/07/07 01:54:50;;;;;;;3.27;1.83;;;16.10;99.90;;;;;;5073226;28;20208;-63
2022/07/07 01:57:18;;;;;;;3.20;2.10;;;16.10;99.90;;;;;;5072691;28;20201;-63
2022/07/07 01:59:45;;;;;;;3.55;2.00;;;16.10;99.90;;;;;;5072691;28;20227;-63
2022/07/07 02:02:13;;;;;;;3.97;2.17;;;16.00;99.90;;;;;;5072710;28;20208;-62
2022/07/07 02:04:40;;;;;;;5.40;1.80;;;16.10;99.90;;;;;;5072501;28;20597;-63
2022/07/07 02:07:07;;;;;;;2.80;1.87;;;16.10;99.90;;;;;;5072564;28;20236;-63
2022/07/07 02:09:33;;;;;;;3.63;2.33;;;16.10;99.90;;;;;;5073082;28;20229;-63
2022/07/07 02:12:00;;;;;;;5.17;2.13;;;16.10;99.90;;;;;;5073089;28;20209;-63
2022/07/07 02:14:28;;;;;;;3.80;2.27;;;16.20;99.90;;;;;;5072698;28;20207;-64
2022/07/07 02:16:56;;;;;;;3.17;2.37;;;16.30;99.90;;;;;;5072249;28;20576;-63
2022/07/07 02:19:23;;;;;;;3.50;2.20;;;16.20;99.90;;;;;;5072494;28;20672;-63
2022/07/07 02:21:49;;;;;;;4.80;2.30;;;16.20;99.90;;;;;;5072661;28;20208;-63
2022/07/07 02:24:16;;;;;;;4.77;2.17;;;16.20;99.90;;;;;;5072490;28;20237;-63
2022/07/07 02:26:43;;;;;;;3.73;2.20;;;16.20;99.90;;;;;;5072554;28;20677;-63
2022/07/07 02:29:10;;;;;;;4.28;1.88;;;16.20;99.90;;;;;;5072659;28;20229;-63
2022/07/07 02:31:38;;;;;;;4.63;2.00;;;16.30;99.90;;;;;;5072714;28;20236;-63
2022/07/07 02:34:05;;;;;;;6.03;1.93;;;16.30;99.90;;;;;;5072437;28;20236;-63
2022/07/07 02:36:32;;;;;;;3.73;1.93;;;16.20;99.90;;;;;;5073453;28;20246;-64
2022/07/07 02:38:59;;;;;;;4.40;1.90;;;16.30;99.90;;;;;;5072800;28;20267;-63
2022/07/07 02:41:25;;;;;;;3.77;2.00;;;16.30;99.90;;;;;;5073069;28;20254;-64
2022/07/07 02:43:52;;;;;;;2.80;2.00;;;16.40;99.90;;;;;;5073003;28;20225;-64
2022/07/07 02:46:19;;;;;;;2.45;1.92;;;16.40;99.90;;;;;;5073715;28;20213;-63
2022/07/07 02:48:47;;;;;;;3.15;2.13;;;16.40;99.90;;;;;;5073903;28;20731;-63
2022/07/07 02:51:14;;;;;;;2.47;1.80;;;16.30;99.90;;;;;;5072992;28;20688;-64
2022/07/07 02:53:40;;;;;;;3.57;2.30;;;16.40;99.90;;;;;;5073075;28;20209;-64
2022/07/07 02:56:07;;;;;;;3.70;2.10;;;16.40;99.90;;;;;;5073562;28;20591;-64
2022/07/07 02:58:34;;;;;;;2.40;2.20;;;16.40;99.90;;;;;;5072596;28;20205;-64
2022/07/07 03:01:01;;;;;;;5.67;2.10;;;16.40;99.90;;;;;;5072416;28;20229;-64
2022/07/07 03:03:28;;;;;;;4.00;2.07;;;16.40;99.90;;;;;;5072301;28;20231;-64
2022/07/07 03:05:56;;;;;;;3.00;2.13;;;16.40;99.90;;;;;;5072740;28;20588;-63
2022/07/07 03:08:23;;;;;;;5.00;2.27;;;16.40;99.90;;;;;;5072966;28;20205;-64
2022/07/07 03:10:50;;;;;;;4.33;1.90;;;16.30;99.90;;;;;;5074754;28;20209;-64
2022/07/07 03:13:16;;;;;;;3.73;2.20;;;16.30;99.90;;;;;;5073011;28;20212;-63
2022/07/07 03:15:43;;;;;;;5.97;2.43;;;16.30;99.90;;;;;;5072986;28;20208;-64
2022/07/07 03:18:10;;;;;;;6.50;2.43;;;16.30;99.90;;;;;;5076153;28;20204;-63
2022/07/07 03:20:37;;;;;;;7.80;2.30;;;16.20;99.90;;;;;;5076953;28;20224;-64
2022/07/07 03:23:05;;;;;;;2.77;1.87;;;16.20;99.90;;;;;;5076896;28;20204;-63
2022/07/07 03:25:32;;;;;;;3.83;2.20;;;16.30;99.90;;;;;;5077235;28;20690;-63
2022/07/07 03:27:59;;;;;;;2.93;1.93;;;16.30;99.90;;;;;;5077459;28;20243;-64
2022/07/07 03:30:26;;;;;;;3.58;2.10;;;16.30;99.90;;;;;;5077114;28;20604;-64
2022/07/07 03:32:52;;;;;;;2.90;2.13;;;16.40;99.90;;;;;;5076975;28;20233;-64
2022/07/07 03:35:19;;;;;;;6.03;2.80;;;16.40;99.90;;;;;;5077035;28;20205;-63
2022/07/07 03:37:46;;;;;;;8.63;2.70;;;16.40;99.90;;;;;;5076423;28;20216;-63
2022/07/07 03:40:14;;;;;;;5.70;2.77;;;16.50;99.90;;;;;;5076367;28;20233;-64
2022/07/07 03:42:42;;;;;;;3.23;2.27;;;16.50;99.90;;;;;;5075479;28;20205;-63
2022/07/07 03:45:09;;;;;;;7.97;2.37;;;16.50;99.90;;;;;;5077690;28;20247;-63
2022/07/07 03:47:36;;;;;;;6.17;2.73;;;16.40;99.90;;;;;;5077251;28;20580;-63
2022/07/07 03:50:03;;;;;;;4.20;2.30;;;16.50;99.90;;;;;;5078150;28;20244;-63
2022/07/07 03:52:30;;;;;;;2.73;2.20;;;16.60;99.90;;;;;;5076958;28;20212;-63
2022/07/07 03:54:57;;;;;;;13.45;7.95;;;16.70;99.90;;;;;;5075828;28;20197;-63
2022/07/07 03:57:25;;;;;;;3.53;2.23;;;16.90;99.90;;;;;;5076562;28;20209;-63
2022/07/07 03:59:51;;;;;;;4.10;2.15;;;17.00;99.90;;;;;;5075816;28;20232;-63
2022/07/07 04:02:18;;;;;;;3.77;2.10;;;17.10;99.90;;;;;;5075813;28;20216;-63
2022/07/07 04:04:45;;;;;;;6.50;1.85;;;17.20;99.90;;;;;;5075752;28;20228;-64
2022/07/07 04:07:12;;;;;;;5.25;2.30;;;17.30;99.90;;;;;;5075790;28;20239;-63
2022/07/07 04:09:38;;;;;;;3.78;2.25;;;17.30;99.90;;;;;;5075431;28;20239;-63
2022/07/07 04:12:06;;;;;;;2.83;2.20;;;17.30;99.90;;;;;;5076231;28;20250;-64
2022/07/07 04:14:34;;;;;;;5.32;2.22;;;17.30;99.90;;;;;;5077358;28;20208;-63
2022/07/07 04:17:01;;;;;;;4.20;2.10;;;17.30;99.90;;;;;;5076435;28;20578;-63
2022/07/07 04:19:28;;;;;;;4.45;1.83;;;17.40;99.90;;;;;;5075973;28;20225;-64
2022/07/07 04:21:54;;;;;;;5.63;2.78;;;17.50;99.90;;;;;;5075365;28;20213;-63
2022/07/07 04:24:21;;;;;;;6.95;3.75;;;17.60;99.90;;;;;;5074693;28;20299;-63
2022/07/07 04:26:48;;;;;;;4.03;1.98;;;17.70;99.90;;;;;;5076012;28;20215;-64
2022/07/07 04:29:15;;;;;;;4.30;2.17;;;17.80;99.90;;;;;;5074590;28;20228;-63
2022/07/07 04:31:44;;;;;;;4.63;1.60;;;17.90;99.90;;;;;;5075388;28;20299;-64
2022/07/07 04:34:12;;;;;;;4.18;1.70;;;18.10;99.90;;;;;;5074868;28;20197;-64
2022/07/07 04:36:38;;;;;;;6.78;2.55;;;18.10;99.90;;;;;;5074755;28;20216;-63
2022/07/07 04:39:05;;;;;;;2.95;1.67;;;18.20;99.90;;;;;;5075462;28;20229;-63
2022/07/07 04:41:32;;;;;;;5.13;1.67;;;18.20;99.90;;;;;;5075669;28;20530;-63
2022/07/07 04:43:59;;;;;;;4.10;2.45;;;18.30;99.90;;;;;;5075650;28;20561;-63
2022/07/07 04:46:26;;;;;;;5.75;1.77;;;18.40;99.90;;;;;;5075366;28;20216;-63
2022/07/07 04:48:54;;;;;;;8.63;1.83;;;18.70;99.90;;;;;;5075363;28;20224;-63
2022/07/07 04:51:20;;;;;;;3.53;1.38;;;19.00;99.90;;;;;;5075305;28;20614;-63
2022/07/07 04:53:47;;;;;;;2.08;1.48;;;19.20;99.90;;;;;;5076746;28;20228;-63
2022/07/07 04:56:14;;;;;;;2.47;1.70;;;19.50;99.90;;;;;;5077562;28;20205;-64
2022/07/07 04:58:41;;;;;;;6.70;1.77;;;19.70;99.30;;;;;;5076920;28;20228;-64
2022/07/07 05:01:08;;;;;;;4.20;1.80;;;19.90;98.90;;;;;;5077370;28;20686;-64
2022/07/07 05:03:35;;;;;;;4.35;1.65;;;20.10;98.70;;;;;;5076477;28;20204;-65
2022/07/07 05:06:03;;;;;;;4.28;1.50;;;20.30;98.20;;;;;;5076673;28;20225;-64
2022/07/07 05:08:30;;;;;;;6.25;1.90;;;20.50;97.50;;;;;;5075884;28;20691;-65
2022/07/07 05:10:57;;;;;;;4.65;1.38;;;20.70;96.80;;;;;;5075356;28;20664;-64
2022/07/07 05:13:23;;;;;;;1.92;1.40;;;20.70;96.40;;;;;;5075058;28;20695;-65
2022/07/07 05:15:50;;;;;;;4.18;1.55;;;20.80;96.10;;;;;;5075416;28;20283;-65
2022/07/07 05:18:17;;;;;;;5.65;1.60;;;20.80;95.60;;;;;;5075054;28;20211;-64
2022/07/07 05:20:44;;;;;;;6.13;1.52;;;21.00;95.40;;;;;;5074738;28;20274;-64
2022/07/07 05:23:12;;;;;;;10.60;1.83;;;21.20;95.00;;;;;;5075028;28;20228;-64
2022/07/07 05:25:39;;;;;;;4.35;1.35;;;21.30;94.20;;;;;;5074316;28;20229;-65
2022/07/07 05:28:06;;;;;;;1.98;1.30;;;21.40;94.00;;;;;;5074341;28;20215;-64
2022/07/07 05:30:32;;;;;;;5.28;1.60;;;21.60;93.70;;;;;;5074559;28;20777;-64
2022/07/07 05:32:59;;;;;;;3.00;1.52;;;21.90;93.00;;;;;;5074339;28;20215;-64
2022/07/07 05:35:26;;;;;;;5.53;2.35;;;22.00;92.60;;;;;;5074932;28;20215;-64
2022/07/07 05:37:53;;;;;;;5.25;2.25;;;21.90;92.40;;;;;;5074619;28;20215;-65
2022/07/07 05:40:21;;;;;;;14.55;4.15;;;21.80;92.60;;;;;;5073841;28;20229;-64
2022/07/07 05:42:48;;;;;;;5.05;1.60;;;22.00;92.70;;;;;;5073639;28;20215;-64
2022/07/07 05:45:15;;;;;;;4.93;1.50;;;22.60;91.40;;;;;;5073802;28;20228;-63
2022/07/07 05:47:41;;;;;;;6.53;1.73;;;22.80;91.00;;;;;;5074903;28;20205;-63
2022/07/07 05:50:09;;;;;;;2.47;1.33;;;22.90;90.70;;;;;;5074516;28;20233;-62
2022/07/07 05:52:36;;;;;;;3.60;1.40;;;22.90;90.50;;;;;;5075477;28;20209;-63
2022/07/07 05:55:02;;;;;;;3.03;1.60;;;22.60;90.70;;;;;;5074745;28;20197;-63
2022/07/07 05:57:32;;;;;;;3.60;1.88;;;22.60;90.80;;;;;;5074976;28;20231;-63
2022/07/07 05:59:59;;;;;;;5.05;1.77;;;23.20;90.70;;;;;;5075091;28;20221;-63
2022/07/07 06:02:26;;;;;;;5.10;1.50;;;25.00;85.00;;;;;;5074277;28;20216;-64
2022/07/07 06:04:52;;;;;;;2.03;1.40;;;27.10;77.40;;;;;;5075071;28;20614;-65
2022/07/07 06:07:19;;;;;;;5.20;1.50;;;28.90;70.50;;;;;;5075566;28;20215;-64
2022/07/07 06:09:46;;;;;;;3.22;1.58;;;30.80;64.30;;;;;;5074662;28;20243;-65
2022/07/07 06:12:13;;;;;;;2.65;1.50;;;32.50;57.70;;;;;;5074249;28;20208;-65
2022/07/07 06:14:41;;;;;;;3.72;1.42;;;32.90;55.30;;;;;;5075451;28;20581;-65
2022/07/07 06:17:07;;;;;;;4.63;1.40;;;32.40;55.30;;;;;;5076005;28;20220;-64
2022/07/07 06:19:34;;;;;;;2.40;1.15;;;31.60;55.90;;;;;;5075169;28;20659;-65
2022/07/07 06:22:01;;;;;;;4.40;1.80;;;31.00;56.70;;;;;;5076263;28;20212;-64
2022/07/07 06:24:28;;;;;;;2.30;1.30;;;30.80;56.10;;;;;;5074208;28;20212;-65
2022/07/07 06:26:54;;;;;;;1.60;1.20;;;30.50;55.80;;;;;;5074369;28;20213;-65
2022/07/07 06:29:21;;;;;;;4.82;1.10;;;31.50;54.30;;;;;;5074202;28;20224;-65
2022/07/07 06:31:49;;;;;;;4.60;1.40;;;33.00;51.20;;;;;;5074582;28;20201;-64
2022/07/07 06:34:16;;;;;;;4.75;1.20;;;34.30;49.40;;;;;;5073834;28;20551;-64
2022/07/07 06:36:42;;;;;;;2.97;1.23;;;35.50;47.50;;;;;;5074506;28;20201;-63
2022/07/07 06:39:09;;;;;;;2.53;1.13;;;36.60;45.60;;;;;;5074555;28;20232;-64
2022/07/07 06:41:37;;;;;;;5.13;1.02;;;37.70;43.20;;;;;;5074080;28;20676;-66
2022/07/07 06:44:05;;;;;;;3.80;1.23;;;37.70;42.20;;;;;;5073575;28;20563;-64
2022/07/07 06:46:32;;;;;;;2.85;1.25;;;37.70;42.40;;;;;;5074347;28;20229;-65
2022/07/07 06:49:00;;;;;;;5.38;1.60;;;38.00;41.90;;;;;;5074367;28;20252;-64
2022/07/07 06:51:27;;;;;;;4.55;1.38;;;37.70;41.80;;;;;;5073728;28;20212;-65
2022/07/07 06:53:53;;;;;;;3.70;1.35;;;37.50;41.40;;;;;;5073537;28;20212;-65
2022/07/07 06:56:20;;;;;;;2.75;1.02;;;36.60;43.20;;;;;;5073235;28;20208;-64
2022/07/07 06:58:47;;;;;;;5.38;1.58;;;35.60;43.50;;;;;;5073087;28;20255;-64
2022/07/07 07:01:13;;;;;;;3.60;1.40;;;34.00;45.30;;;;;;5074391;28;20197;-64
2022/07/07 07:03:40;;;;;;;2.85;1.27;;;32.70;47.40;;;;;;5073360;28;20780;-65
2022/07/07 07:06:09;;;;;;;3.08;1.30;;;31.80;48.80;;;;;;5073632;28;20324;-64
2022/07/07 07:08:35;;;;;;;4.45;1.33;;;30.90;50.60;;;;;;5072860;28;20680;-64
2022/07/07 07:11:03;;;;;;;3.30;1.48;;;30.00;52.50;;;;;;5073526;28;20213;-64
2022/07/07 07:13:30;;;;;;;5.68;1.65;;;29.10;54.30;;;;;;5073337;28;20205;-66
2022/07/07 07:15:57;;;;;;;3.00;1.20;;;28.50;55.00;;;;;;5072547;28;20613;-65
2022/07/07 07:18:24;;;;;;;6.68;1.35;;;28.00;56.20;;;;;;5072843;28;20232;-65
2022/07/07 07:20:50;;;;;;;4.97;1.52;;;27.50;57.20;;;;;;5074421;28;20207;-63
2022/07/07 07:23:18;;;;;;;3.65;1.38;;;27.10;58.00;;;;;;5073639;28;20209;-65
2022/07/07 07:25:45;;;;;;;3.60;1.70;;;26.80;59.40;;;;;;5073451;28;20220;-64
2022/07/07 07:28:12;;;;;;;2.70;1.20;;;26.70;60.50;;;;;;5073421;28;20205;-63
2022/07/07 07:30:39;;;;;;;4.85;1.40;;;26.50;60.80;;;;;;5073475;28;20236;-64
2022/07/07 07:33:05;;;;;;;6.13;1.83;;;26.40;62.20;;;;;;5074053;28;20213;-64
2022/07/07 07:35:32;;;;;;;7.78;1.92;;;26.30;62.60;;;;;;5074295;28;20714;-64
2022/07/07 07:37:59;;;;;;;3.03;1.70;;;26.40;62.30;;;;;;5073826;28;20201;-64
2022/07/07 07:40:27;;;;;;;7.38;1.65;;;26.40;62.10;;;;;;5074111;28;20653;-64
2022/07/07 07:42:54;;;;;;;5.22;1.42;;;26.30;62.50;;;;;;5074910;28;20205;-64
2022/07/07 07:45:22;;;;;;;3.67;1.40;;;26.00;64.00;;;;;;5074454;28;20217;-62
2022/07/07 07:47:48;;;;;;;5.38;1.35;;;25.90;64.80;;;;;;5074598;28;20201;-64
2022/07/07 07:50:17;;;;;;;2.92;1.48;;;25.80;64.80;;;;;;5055879;28;20230;-64
2022/07/07 07:52:44;;;;;;;5.05;1.50;;;25.60;65.90;;;;;;5074225;28;20212;-65
2022/07/07 07:55:13;;;;;;;4.35;1.52;;;25.30;66.50;;;;;;5074455;28;20267;-62
2022/07/07 07:57:42;;;;;;;4.50;1.38;;;25.00;67.90;;;;;;5074960;28;20228;-63
2022/07/07 08:00:11;;;;;;;6.72;2.97;;;24.70;68.40;;;;;;5074901;28;20225;-62
2022/07/07 08:02:38;;;;;;;3.35;1.23;;;24.40;69.20;;;;;;5074646;28;20212;-63
2022/07/07 08:05:05;;;;;;;4.40;1.65;;;24.30;70.30;;;;;;5077623;28;20205;-62
2022/07/07 08:07:33;;;;;;;4.32;1.50;;;24.10;71.70;;;;;;5077629;28;20223;-62
2022/07/07 08:09:59;;;;;;;2.13;1.48;;;23.90;72.30;;;;;;5078226;28;20267;-62
2022/07/07 08:12:26;;;;;;;5.53;1.70;;;23.80;72.90;;;;;;5078085;28;20639;-63
2022/07/07 08:14:54;;;;;;;3.92;1.50;;;23.70;77.70;;;;;;5077787;28;20208;-63
2022/07/07 08:17:21;;;;;;;5.90;1.40;;;23.80;79.20;;;;;;5077970;28;20201;-63
2022/07/07 08:19:48;;;;;;;6.22;1.98;;;24.10;80.70;;;;;;5077496;28;20564;-62
2022/07/07 08:22:15;;;;;;;4.32;1.52;;;24.30;79.90;;;;;;5078259;28;20212;-63
2022/07/07 08:24:42;;;;;;;4.38;1.52;;;24.30;78.40;;;;;;5078335;28;20205;-62
2022/07/07 08:27:09;;;;;;;5.95;1.60;;;24.30;78.40;;;;;;5077693;28;20224;-62
2022/07/07 08:29:38;;;;;;;2.00;1.20;;;24.20;78.80;;;;;;5077472;28;20607;-63
2022/07/07 08:32:08;;;;;;;3.33;1.58;;;24.20;78.30;;;;;;5077612;28;20291;-64
2022/07/07 08:34:34;;;;;;;7.22;1.42;;;24.10;78.40;;;;;;5077296;28;20219;-63
2022/07/07 08:37:01;;;;;;;3.58;1.30;;;24.00;76.90;;;;;;5077787;28;20203;-63
2022/07/07 08:39:28;;;;;;;4.00;1.50;;;23.90;76.60;;;;;;5076990;28;20243;-63
2022/07/07 08:41:55;;;;;;;4.65;1.60;;;23.80;77.10;;;;;;5077657;28;20205;-63
2022/07/07 08:44:22;;;;;;;4.05;1.98;;;23.60;77.60;;;;;;5077690;28;20211;-63
2022/07/07 08:46:49;;;;;;;3.10;1.83;;;23.70;78.20;;;;;;5077843;28;20231;-62
2022/07/07 08:49:18;;;;;;;4.18;1.50;;;23.90;78.40;;;;;;5077096;28;20228;-63
2022/07/07 08:51:45;;;;;;;4.47;1.77;;;24.00;77.70;;;;;;5077318;28;20204;-63
2022/07/07 08:54:14;;;;;;;7.15;2.05;;;24.10;77.80;;;;;;5077364;28;20567;-63
2022/07/07 08:56:41;;;;;;;3.58;2.15;;;24.10;78.60;;;;;;5077435;28;20201;-63
2022/07/07 08:59:10;;;;;;;4.75;1.90;;;24.10;79.30;;;;;;5077411;28;20228;-63
2022/07/07 09:01:37;;;;;;;3.40;2.03;;;24.10;79.40;;;;;;5076881;28;20605;-62
2022/07/07 09:04:05;;;;;;;4.50;2.00;;;24.10;80.80;;;;;;5075991;28;20258;-62
2022/07/07 09:06:33;;;;;;;2.90;1.80;;;23.90;82.10;;;;;;5076052;28;20704;-62
2022/07/07 09:09:03;;;;;;;6.53;2.08;;;23.90;83.00;;;;;;5077160;28;20274;-62
2022/07/07 09:11:32;;;;;;;4.95;1.98;;;24.10;83.10;;;;;;5077441;28;20291;-62
2022/07/07 09:14:10;;;;;;;2.88;1.60;;;24.10;82.50;;;;;;5077339;28;20208;-63
2022/07/07 09:16:37;;;;;;;4.20;1.67;;;24.20;82.70;;;;;;5076719;28;20207;-62
2022/07/07 09:19:08;;;;;;;5.88;1.75;;;24.10;83.20;;;;;;5076750;28;20581;-65
2022/07/07 09:21:36;;;;;;;6.07;1.92;;;24.00;84.00;;;;;;5074998;28;20247;-63
2022/07/07 09:24:05;;;;;;;2.45;1.70;;;23.80;84.80;;;;;;5075132;28;20216;-63
2022/07/07 09:26:37;;;;;;;6.35;2.08;;;23.50;86.30;;;;;;5074678;28;20228;-63
2022/07/07 09:29:04;;;;;;;3.67;1.77;;;23.30;87.50;;;;;;5075612;28;20232;-63
2022/07/07 09:31:52;;;;;;;6.78;2.03;;;23.10;88.20;;;;;;5074331;28;20557;-63
2022/07/07 09:34:19;;;;;;;3.35;2.00;;;23.20;89.30;;;;;;5074786;28;20727;-63
2022/07/07 09:39:40;;;;;;;2.60;1.42;;;23.30;90.40;;;;;;5076978;28;20235;-64
2022/07/07 09:42:18;;;;;;;3.50;1.60;;;23.40;90.70;;;;;;5076546;28;20236;-64
2022/07/07 09:44:46;;;;;;;3.25;1.80;;;23.70;90.50;;;;;;5073050;28;20209;-64
2022/07/07 09:47:13;;;;;;;6.03;1.75;;;23.80;90.80;;;;;;5073455;28;20232;-64
2022/07/07 09:49:42;;;;;;;8.02;2.08;;;23.90;91.00;;;;;;5072948;28;20224;-64
2022/07/07 09:52:17;;;;;;;4.55;1.90;;;23.70;90.40;;;;;;5073143;28;20296;-63
2022/07/07 09:54:49;;;;;;;2.55;1.67;;;23.30;91.10;;;;;;5072745;28;20201;-65
2022/07/07 09:57:16;;;;;;;5.25;1.73;;;23.10;91.80;;;;;;5073331;28;20561;-64
2022/07/07 09:59:43;;;;;;;9.73;2.70;;;23.10;92.20;;;;;;5073098;28;20232;-63
2022/07/07 10:02:18;;;;;;;8.65;2.25;;;22.90;93.00;;;;;;5073035;28;20212;-64
2022/07/07 10:04:47;;;;;;;5.45;2.15;;;22.90;93.50;;;;;;5072836;28;20231;-64
2022/07/07 10:07:15;;;;;;;4.32;1.92;;;23.10;94.50;;;;;;5073029;28;20224;-63
2022/07/07 10:09:44;;;;;;;3.55;1.50;;;23.00;94.50;;;;;;5073427;28;20235;-64
2022/07/07 10:12:14;;;;;;;3.85;1.55;;;23.10;95.50;;;;;;5073874;28;20205;-63
2022/07/07 10:14:44;;;;;;;5.40;1.70;;;23.00;97.10;;;;;;5073181;28;20208;-64
2022/07/07 10:17:12;;;;;;;4.78;1.92;;;23.00;97.10;;;;;;5073199;28;20687;-64
2022/07/07 10:19:39;;;;;;;2.03;1.83;;;23.10;97.10;;;;;;5073640;28;20233;-64
2022/07/07 10:22:07;;;;;;;3.65;2.28;;;23.20;96.60;;;;;;5073545;28;20304;-64
2022/07/07 10:24:35;;;;;;;2.17;1.63;;;23.50;96.20;;;;;;5075029;28;20211;-65
2022/07/07 10:27:05;;;;;;;3.35;1.67;;;23.50;95.40;;;;;;5072749;28;20228;-64
2022/07/07 10:29:40;;;;;;;2.72;1.50;;;23.80;95.00;;;;;;5073694;28;20240;-64
2022/07/07 10:32:09;;;;;;;2.55;1.60;;;24.00;94.20;;;;;;5074165;28;20205;-65
2022/07/07 10:34:38;;;;;;;3.47;1.50;;;24.20;94.10;;;;;;5074624;28;20205;-65
2022/07/07 10:37:07;;;;;;;3.38;2.10;;;24.10;93.00;;;;;;5074743;28;20692;-65
2022/07/07 10:39:42;;;;;;;2.63;1.35;;;24.00;93.10;;;;;;5074768;28;20239;-65
2022/07/07 10:42:36;;;;;;;5.28;1.65;;;23.90;93.20;;;;;;5074177;28;20232;-64
2022/07/07 10:45:04;;;;;;;3.92;1.70;;;23.80;93.30;;;;;;5073252;28;20574;-65
2022/07/07 10:47:33;;;;;;;2.00;1.30;;;24.10;92.80;;;;;;5073655;28;20311;-65
2022/07/07 10:50:01;;;;;;;3.70;1.73;;;24.30;92.30;;;;;;5073925;28;20401;-65
2022/07/07 10:52:29;;;;;;;3.00;1.38;;;24.40;92.10;;;;;;5074508;28;20209;-65
2022/07/07 10:54:59;;;;;;;1.70;1.60;;;24.60;91.80;;;;;;5074161;28;20208;-64
2022/07/07 10:57:28;;;;;;;4.10;1.90;;;24.90;91.50;;;;;;5074361;28;20201;-64
2022/07/07 11:00:06;;;;;;;2.70;1.70;;;25.20;91.30;;;;;;5073990;28;20259;-65
2022/07/07 11:02:34;;;;;;;3.65;2.17;;;25.30;91.00;;;;;;5073379;28;20213;-65
2022/07/07 11:05:03;;;;;;;4.22;1.85;;;25.50;90.80;;;;;;5073461;28;20204;-65
2022/07/07 11:07:30;;;;;;;2.65;1.70;;;25.60;90.90;;;;;;5073526;28;20242;-65
2022/07/07 11:09:59;;;;;;;4.03;2.20;;;25.40;90.60;;;;;;5073700;28;20225;-64
2022/07/07 11:12:38;;;;;;;3.72;1.40;;;25.40;90.50;;;;;;5073777;28;20204;-65
2022/07/07 11:15:35;;;;;;;1.50;1.38;;;25.30;90.70;;;;;;5073184;28;20673;-64
2022/07/07 11:18:10;;;;;;;3.03;1.65;;;25.30;90.80;;;;;;5073186;28;20196;-64
2022/07/07 11:20:50;;;;;;;2.53;1.40;;;25.10;91.20;;;;;;5073868;28;20293;-65
2022/07/07 11:23:16;;;;;;;3.67;1.27;;;24.90;91.60;;;;;;5073349;28;20201;-65
2022/07/07 11:25:43;;;;;;;2.95;1.67;;;24.80;91.80;;;;;;5073500;28;20208;-66
2022/07/07 11:28:12;;;;;;;3.78;1.50;;;24.80;91.70;;;;;;5074030;28;20228;-66
2022/07/07 11:30:41;;;;;;;2.40;1.35;;;24.60;91.60;;;;;;5073104;28;20243;-65
2022/07/07 11:33:07;;;;;;;4.15;1.45;;;24.50;92.00;;;;;;5073183;28;20222;-65
2022/07/07 11:35:37;;;;;;;4.25;1.60;;;24.20;92.40;;;;;;5073176;28;20205;-65
2022/07/07 11:38:05;;;;;;;3.33;1.55;;;24.20;92.70;;;;;;5073636;28;20208;-63
2022/07/07 11:40:32;;;;;;;3.55;1.50;;;24.20;92.60;;;;;;5077428;28;20236;-65
2022/07/07 11:43:00;;;;;;;2.83;1.83;;;24.20;92.70;;;;;;5077478;28;20582;-63
2022/07/07 11:45:29;;;;;;;3.17;1.58;;;24.00;92.70;;;;;;5077305;28;20213;-64
2022/07/07 11:47:58;;;;;;;4.38;1.45;;;23.90;93.10;;;;;;5077110;28;20225;-64
2022/07/07 11:50:25;;;;;;;2.22;1.35;;;23.80;93.20;;;;;;5076810;28;20220;-64
2022/07/07 11:52:54;;;;;;;3.40;1.70;;;23.70;93.40;;;;;;5078149;28;20209;-64
2022/07/07 11:55:21;;;;;;;3.40;1.73;;;23.60;93.90;;;;;;5077896;28;20237;-64
2022/07/07 11:57:51;;;;;;;3.13;1.63;;;23.40;94.10;;;;;;5076646;28;20200;-64
2022/07/07 12:00:20;;;;;;;3.78;1.45;;;23.60;94.30;;;;;;5077830;28;20228;-64
2022/07/07 12:02:50;;;;;;;4.00;1.73;;;23.80;94.30;;;;;;5077122;28;20208;-65
2022/07/07 12:05:18;;;;;;;5.63;1.70;;;24.10;93.30;;;;;;5076327;28;20298;-65
2022/07/07 12:07:45;;;;;;;2.72;1.40;;;24.50;92.90;;;;;;5076784;28;20221;-65
2022/07/07 12:10:22;;;;;;;4.97;1.75;;;25.00;92.40;;;;;;5075884;28;20236;-65
2022/07/07 12:12:56;;;;;;;3.38;1.40;;;25.50;91.20;;;;;;5075848;28;20212;-65
2022/07/07 12:15:23;;;;;;;5.63;1.90;;;25.70;90.90;;;;;;5075025;28;20299;-65
2022/07/07 12:17:51;;;;;;;4.20;1.60;;;26.00;90.60;;;;;;5076331;28;20204;-65
2022/07/07 12:20:18;;;;;;;5.97;1.83;;;26.30;88.50;;;;;;5076057;28;20770;-65
2022/07/07 12:22:53;;;;;;;2.50;1.55;;;26.50;87.20;;;;;;5076173;28;20231;-65
2022/07/07 12:25:20;;;;;;;3.92;1.80;;;26.80;86.50;;;;;;5076598;28;20281;-65
2022/07/07 12:27:57;;;;;;;5.32;3.35;;;26.90;86.50;;;;;;5076417;28;20228;-66
2022/07/07 12:30:26;;;;;;;3.38;1.58;;;26.80;86.80;;;;;;5077690;28;20277;-64
2022/07/07 12:32:55;;;;;;;3.05;1.88;;;26.80;86.30;;;;;;5076174;28;20209;-65
2022/07/07 12:35:43;;;;;;;6.05;1.98;;;26.50;85.70;;;;;;5076223;28;20209;-66
2022/07/07 12:38:10;;;;;;;4.07;1.77;;;26.20;86.60;;;;;;5071443;28;20212;-65
2022/07/07 12:40:40;;;;;;;5.80;2.10;;;25.90;87.50;;;;;;5077506;28;20228;-65
2022/07/07 12:43:08;;;;;;;2.88;1.70;;;25.60;88.10;;;;;;5076557;28;20661;-65
2022/07/07 12:45:35;;;;;;;6.35;3.00;;;25.40;89.20;;;;;;5075546;28;20201;-65
2022/07/07 12:48:03;;;;;;;4.15;1.60;;;25.20;90.00;;;;;;5076170;28;20231;-65
2022/07/07 12:50:30;;;;;;;3.40;1.90;;;25.00;90.30;;;;;;5075515;28;20228;-65
2022/07/07 12:52:59;;;;;;;3.53;1.83;;;24.90;91.00;;;;;;5075777;28;20748;-65